createdAt,value
2023-02-19T00:01:41.753Z,8.48
2023-02-19T00:04:14.849Z,8.59
2023-02-19T00:06:42.326Z,8.58
2023-02-19T00:09:10.730Z,8.46
2023-02-19T00:11:37.848Z,8.49
2023-02-19T00:14:04.890Z,8.47
2023-02-19T00:16:36.554Z,8.40
2023-02-19T00:19:05.233Z,8.35
2023-02-19T00:21:32.304Z,8.37
2023-02-19T00:24:04.035Z,8.39
2023-02-19T00:26:31.434Z,8.19
2023-02-19T00:28:58.759Z,8.26
2023-02-19T00:31:32.808Z,8.19
2023-02-19T00:34:02.401Z,8.08
2023-02-19T00:36:34.100Z,8.23
2023-02-19T00:39:00.941Z,8.31
2023-02-19T00:41:27.923Z,8.33
2023-02-19T00:43:58.583Z,8.36
2023-02-19T00:46:26.689Z,8.37
2023-02-19T00:48:53.981Z,8.41
2023-02-19T00:51:21.798Z,8.43
2023-02-19T00:53:48.739Z,8.43
2023-02-19T00:56:15.486Z,8.35
2023-02-19T00:58:42.423Z,8.37
2023-02-19T01:01:09.547Z,8.42
2023-02-19T01:03:37.135Z,8.36
2023-02-19T01:06:05.262Z,8.33
2023-02-19T01:08:32.853Z,8.24
2023-02-19T01:11:01.703Z,8.27
2023-02-19T01:13:28.822Z,8.22
2023-02-19T01:16:15.484Z,8.26
2023-02-19T01:18:42.570Z,8.28
2023-02-19T01:21:14.862Z,8.25
2023-02-19T01:23:41.757Z,8.20
2023-02-19T01:26:17.472Z,8.36
2023-02-19T01:28:44.832Z,8.40
2023-02-19T01:31:20.163Z,8.35
2023-02-19T01:33:52.537Z,8.38
2023-02-19T01:36:19.340Z,8.29
2023-02-19T01:38:46.260Z,8.36
2023-02-19T01:41:16.073Z,8.27
2023-02-19T01:44:02.693Z,8.22
2023-02-19T01:46:32.882Z,8.16
2023-02-19T01:49:04.939Z,8.07
2023-02-19T01:51:32.887Z,8.21
2023-02-19T01:54:01.610Z,8.19
2023-02-19T01:56:28.812Z,8.22
2023-02-19T01:58:55.459Z,8.24
2023-02-19T02:01:22.145Z,8.30
2023-02-19T02:03:50.012Z,8.31
2023-02-19T02:06:31.862Z,8.14
2023-02-19T02:09:18.247Z,8.13
2023-02-19T02:11:48.515Z,8.19
2023-02-19T02:14:16.948Z,8.16
2023-02-19T02:17:08.483Z,8.07
2023-02-19T02:20:02.623Z,8.10
2023-02-19T02:22:53.316Z,8.01
2023-02-19T02:25:31.985Z,8.08
2023-02-19T02:28:23.713Z,8.02
2023-02-19T02:31:00.054Z,6.91
2023-02-19T02:33:33.015Z,7.04
2023-02-19T02:36:13.416Z,7.05
2023-02-19T02:38:42.280Z,7.10
2023-02-19T02:41:09.533Z,7.01
2023-02-19T02:43:36.636Z,6.76
2023-02-19T02:46:03.749Z,7.23
2023-02-19T02:48:38.865Z,6.82
2023-02-19T02:51:20.769Z,7.06
2023-02-19T02:54:16.236Z,7.01
2023-02-19T02:56:44.449Z,7.23
2023-02-19T02:59:16.744Z,7.28
2023-02-19T03:02:05.129Z,7.50
2023-02-19T03:05:01.549Z,7.29
2023-02-19T03:07:34.502Z,7.04
2023-02-19T03:10:03.662Z,6.93
2023-02-19T03:12:57.541Z,6.74
2023-02-19T03:15:46.632Z,7.12
2023-02-19T03:18:32.339Z,7.00
2023-02-19T03:20:59.503Z,6.97
2023-02-19T03:23:49.916Z,6.83
2023-02-19T03:26:18.359Z,6.81
2023-02-19T03:29:11.746Z,6.61
2023-02-19T03:31:43.174Z,6.86
2023-02-19T03:34:14.476Z,6.74
2023-02-19T03:36:45.593Z,5.75
2023-02-19T03:39:15.400Z,6.29
2023-02-19T03:41:45.750Z,6.26
2023-02-19T03:44:24.866Z,6.46
2023-02-19T03:47:07.321Z,6.34
2023-02-19T03:49:55.389Z,6.09
2023-02-19T03:52:43.253Z,6.40
2023-02-19T03:55:40.912Z,6.28
2023-02-19T03:58:19.722Z,6.02
2023-02-19T04:00:55.516Z,6.18
2023-02-19T04:03:39.060Z,6.20
2023-02-19T04:06:10.968Z,6.49
2023-02-19T04:08:40.127Z,6.27
2023-02-19T04:11:08.421Z,6.43
2023-02-19T04:13:43.478Z,6.51
2023-02-19T04:16:14.074Z,6.44
2023-02-19T04:18:43.024Z,6.21
2023-02-19T04:21:11.046Z,6.44
2023-02-19T04:23:40.778Z,5.99
2023-02-19T04:26:08.468Z,5.96
2023-02-19T04:28:35.895Z,6.24
2023-02-19T04:31:02.661Z,6.38
2023-02-19T04:33:29.350Z,6.17
2023-02-19T04:35:56.018Z,6.32
2023-02-19T04:38:22.782Z,6.08
2023-02-19T04:40:51.592Z,6.00
2023-02-19T04:43:18.535Z,6.02
2023-02-19T04:45:45.138Z,5.98
2023-02-19T04:48:11.842Z,5.26
2023-02-19T04:50:39.741Z,5.82
2023-02-19T04:53:12.752Z,6.02
2023-02-19T04:55:39.738Z,5.41
2023-02-19T04:58:06.383Z,5.64
2023-02-19T05:00:34.257Z,5.92
2023-02-19T05:03:04.051Z,5.84
2023-02-19T05:05:30.667Z,6.00
2023-02-19T05:07:57.997Z,6.07
2023-02-19T05:10:24.642Z,6.11
2023-02-19T05:12:52.094Z,6.13
2023-02-19T05:15:21.788Z,6.16
2023-02-19T05:17:48.480Z,6.17
2023-02-19T05:20:15.140Z,6.08
2023-02-19T05:22:41.823Z,5.82
2023-02-19T05:25:08.527Z,5.92
2023-02-19T05:27:35.393Z,5.98
2023-02-19T05:30:02.165Z,6.02
2023-02-19T05:32:28.927Z,6.00
2023-02-19T05:34:58.591Z,5.80
2023-02-19T05:37:25.278Z,6.02
2023-02-19T05:39:51.997Z,5.47
2023-02-19T05:42:18.669Z,5.78
2023-02-19T05:44:45.362Z,5.45
2023-02-19T05:47:12.089Z,5.40
2023-02-19T05:49:41.830Z,5.62
2023-02-19T05:52:08.490Z,5.71
2023-02-19T05:54:35.148Z,5.50
2023-02-19T05:57:01.859Z,5.31
2023-02-19T05:59:28.557Z,5.61
2023-02-19T06:01:55.459Z,5.41
2023-02-19T06:04:22.428Z,5.52
2023-02-19T06:06:49.191Z,5.68
2023-02-19T06:09:16.095Z,5.45
2023-02-19T06:11:43.721Z,5.73
2023-02-19T06:14:13.362Z,5.81
2023-02-19T06:16:40.040Z,5.86
2023-02-19T06:19:06.752Z,5.87
2023-02-19T06:21:33.577Z,5.88
2023-02-19T06:24:05.181Z,5.84
2023-02-19T06:26:31.783Z,5.83
2023-02-19T06:28:58.377Z,5.82
2023-02-19T06:31:25.270Z,5.78
2023-02-19T06:33:52.045Z,5.82
2023-02-19T06:36:23.236Z,5.83
2023-02-19T06:38:49.914Z,5.89
2023-02-19T06:41:16.882Z,5.82
2023-02-19T06:43:43.554Z,5.86
2023-02-19T06:46:11.646Z,5.92
2023-02-19T06:48:39.166Z,5.87
2023-02-19T06:51:05.910Z,5.86
2023-02-19T06:53:32.690Z,5.90
2023-02-19T06:56:01.310Z,5.86
2023-02-19T06:58:28.040Z,5.75
2023-02-19T07:00:54.830Z,5.84
2023-02-19T07:03:21.609Z,5.88
2023-02-19T07:05:48.659Z,5.93
2023-02-19T07:08:17.441Z,5.88
2023-02-19T07:10:55.537Z,5.63
2023-02-19T07:13:22.907Z,5.72
2023-02-19T07:15:51.944Z,5.66
2023-02-19T07:18:19.011Z,5.64
2023-02-19T07:20:45.735Z,5.82
2023-02-19T07:23:12.342Z,5.96
2023-02-19T07:25:39.438Z,5.91
2023-02-19T07:28:06.834Z,4.98
2023-02-19T07:30:36.563Z,5.52
2023-02-19T07:33:03.222Z,5.75
2023-02-19T07:35:30.902Z,5.92
2023-02-19T07:37:57.521Z,5.84
2023-02-19T07:40:24.113Z,5.84
2023-02-19T07:42:50.717Z,5.97
2023-02-19T07:45:17.456Z,6.08
2023-02-19T07:47:44.197Z,6.13
2023-02-19T07:50:13.743Z,5.94
2023-02-19T07:52:40.654Z,6.14
2023-02-19T07:55:07.382Z,6.23
2023-02-19T07:57:34.013Z,6.25
2023-02-19T08:00:00.745Z,6.36
2023-02-19T08:02:46.086Z,6.14
2023-02-19T08:05:14.010Z,6.25
2023-02-19T08:07:40.692Z,6.36
2023-02-19T08:10:26.485Z,6.20
2023-02-19T08:13:18.965Z,6.34
2023-02-19T08:16:07.546Z,6.01
2023-02-19T08:18:41.919Z,6.11
2023-02-19T08:21:08.944Z,6.26
2023-02-19T08:23:36.984Z,6.31
2023-02-19T08:26:03.923Z,6.38
2023-02-19T08:28:30.935Z,6.46
2023-02-19T08:31:02.525Z,6.05
2023-02-19T08:33:30.545Z,6.47
2023-02-19T08:35:57.928Z,6.18
2023-02-19T08:38:24.601Z,6.23
2023-02-19T08:40:51.315Z,6.58
2023-02-19T08:43:19.416Z,6.87
2023-02-19T08:45:47.548Z,6.87
2023-02-19T08:48:14.654Z,7.08
2023-02-19T08:50:41.569Z,7.04
2023-02-19T08:53:11.320Z,7.14
2023-02-19T08:55:38.751Z,7.33
2023-02-19T08:58:06.171Z,7.26
2023-02-19T09:00:32.914Z,7.20
2023-02-19T09:02:59.693Z,7.45
2023-02-19T09:05:26.336Z,7.63
2023-02-19T09:07:53.113Z,6.85
2023-02-19T09:10:19.892Z,7.15
2023-02-19T09:12:46.771Z,7.13
2023-02-19T09:15:13.476Z,7.71
2023-02-19T09:17:40.131Z,8.09
2023-02-19T09:20:07.167Z,7.89
2023-02-19T09:22:33.909Z,8.14
2023-02-19T09:25:00.609Z,8.40
2023-02-19T09:27:28.069Z,8.44
2023-02-19T09:29:55.209Z,8.74
2023-02-19T09:32:22.113Z,8.61
2023-02-19T09:34:49.855Z,9.12
2023-02-19T09:37:16.659Z,9.06
2023-02-19T09:39:43.561Z,9.04
2023-02-19T09:42:15.805Z,8.95
2023-02-19T09:44:47.412Z,9.62
2023-02-19T09:47:22.786Z,9.42
2023-02-19T09:49:57.614Z,9.41
2023-02-19T09:52:27.941Z,8.54
2023-02-19T09:54:57.917Z,8.53
2023-02-19T09:57:26.480Z,8.20
2023-02-19T10:00:23.938Z,8.07
2023-02-19T10:03:34.605Z,8.54
2023-02-19T10:06:16.854Z,8.50
2023-02-19T10:08:45.694Z,8.92
2023-02-19T10:11:13.347Z,9.03
2023-02-19T10:13:52.833Z,8.26
2023-02-19T10:16:24.507Z,8.41
2023-02-19T10:18:51.247Z,8.89
2023-02-19T10:21:20.239Z,9.34
2023-02-19T10:23:50.537Z,9.56
2023-02-19T10:26:17.312Z,10.08
2023-02-19T10:28:43.966Z,10.24
2023-02-19T10:31:20.697Z,9.46
2023-02-19T10:33:58.425Z,10.26
2023-02-19T10:36:32.408Z,10.19
2023-02-19T10:39:01.049Z,10.58
2023-02-19T10:41:28.240Z,10.04
2023-02-19T10:44:04.092Z,9.92
2023-02-19T10:46:37.194Z,9.76
2023-02-19T10:49:05.583Z,9.88
2023-02-19T10:51:33.727Z,10.74
2023-02-19T10:54:18.023Z,11.40
2023-02-19T10:56:44.775Z,11.33
2023-02-19T10:59:25.256Z,11.55
2023-02-19T11:02:03.680Z,12.84
2023-02-19T11:04:38.534Z,13.29
2023-02-19T11:07:10.001Z,13.34
2023-02-19T11:09:42.836Z,13.48
2023-02-19T11:12:10.569Z,14.07
2023-02-19T11:14:37.334Z,13.58
2023-02-19T11:17:07.815Z,13.12
2023-02-19T11:19:36.683Z,12.59
2023-02-19T11:22:19.111Z,12.03
2023-02-19T11:24:50.288Z,12.74
2023-02-19T11:27:22.460Z,13.06
2023-02-19T11:29:49.481Z,13.04
2023-02-19T11:32:30.428Z,12.90
2023-02-19T11:35:22.705Z,13.66
2023-02-19T11:37:57.358Z,14.04
2023-02-19T11:40:32.745Z,14.31
2023-02-19T11:43:10.042Z,13.30
2023-02-19T11:45:52.906Z,10.83
2023-02-19T11:48:46.040Z,11.59
2023-02-19T11:51:35.866Z,11.86
2023-02-19T11:54:09.001Z,11.71
2023-02-19T11:56:40.986Z,10.75
2023-02-19T11:59:19.315Z,11.41
2023-02-19T12:02:01.780Z,10.78
2023-02-19T12:04:57.751Z,11.27
2023-02-19T12:07:55.668Z,10.73
2023-02-19T12:10:22.306Z,11.64
2023-02-19T12:13:01.298Z,11.73
2023-02-19T12:15:46.722Z,11.34
2023-02-19T12:18:19.361Z,11.27
2023-02-19T12:21:06.672Z,10.88
2023-02-19T12:23:47.095Z,9.82
2023-02-19T12:26:22.238Z,9.68
2023-02-19T12:28:54.955Z,9.94
2023-02-19T12:31:35.376Z,10.46
2023-02-19T12:34:20.237Z,10.76
2023-02-19T12:37:25.055Z,10.96
2023-02-19T12:39:51.564Z,9.76
2023-02-19T12:42:38.249Z,9.98
2023-02-19T12:45:44.413Z,9.11
2023-02-19T12:48:13.927Z,9.25
2023-02-19T12:50:41.435Z,9.08
2023-02-19T12:53:45.588Z,9.78
2023-02-19T12:56:20.467Z,9.95
2023-02-19T12:58:59.154Z,9.88
2023-02-19T13:01:33.912Z,9.99
2023-02-19T13:04:23.542Z,10.32
2023-02-19T13:06:57.910Z,10.49
2023-02-19T13:09:51.256Z,10.11
2023-02-19T13:12:24.642Z,10.48
2023-02-19T13:15:00.769Z,10.81
2023-02-19T13:17:34.962Z,11.03
2023-02-19T13:20:21.762Z,10.00
2023-02-19T13:23:39.275Z,10.29
2023-02-19T13:26:18.610Z,10.36
2023-02-19T13:29:17.025Z,10.69
2023-02-19T13:32:00.114Z,10.68
2023-02-19T13:34:42.072Z,10.39
2023-02-19T13:37:10.025Z,10.15
2023-02-19T13:39:36.893Z,10.33
2023-02-19T13:42:04.103Z,10.46
2023-02-19T13:44:41.012Z,9.23
2023-02-19T13:47:46.240Z,9.82
2023-02-19T13:50:20.588Z,9.62
2023-02-19T13:52:47.433Z,9.45
2023-02-19T13:55:52.220Z,9.20
2023-02-19T13:58:34.121Z,9.27
2023-02-19T14:01:01.728Z,9.76
2023-02-19T14:03:35.399Z,9.74
2023-02-19T14:06:06.183Z,9.78
2023-02-19T14:09:02.296Z,9.69
2023-02-19T14:11:48.267Z,9.47
2023-02-19T14:14:39.623Z,9.28
2023-02-19T14:17:09.349Z,9.23
2023-02-19T14:19:41.916Z,8.99
2023-02-19T14:22:58.260Z,8.68
2023-02-19T14:25:31.022Z,8.83
2023-02-19T14:28:02.843Z,8.66
2023-02-19T14:30:30.773Z,8.46
2023-02-19T14:33:09.724Z,8.83
2023-02-19T14:35:45.760Z,9.00
2023-02-19T14:38:20.128Z,8.91
2023-02-19T14:40:47.775Z,8.44
2023-02-19T14:43:16.453Z,8.52
2023-02-19T14:45:49.822Z,8.59
2023-02-19T14:48:41.647Z,8.21
2023-02-19T14:51:32.056Z,8.41
2023-02-19T14:54:00.887Z,8.32
2023-02-19T14:56:32.283Z,8.29
2023-02-19T14:59:11.985Z,8.49
2023-02-19T15:01:39.115Z,8.65
2023-02-19T15:04:06.681Z,8.63
2023-02-19T15:06:35.896Z,8.50
2023-02-19T15:09:07.209Z,8.13
2023-02-19T15:11:37.497Z,8.52
2023-02-19T15:14:06.040Z,8.36
2023-02-19T15:16:35.735Z,7.99
2023-02-19T15:19:05.651Z,7.88
2023-02-19T15:21:33.540Z,8.22
2023-02-19T15:24:02.354Z,8.27
2023-02-19T15:26:36.028Z,8.05
2023-02-19T15:29:14.156Z,8.04
2023-02-19T15:31:52.485Z,8.28
2023-02-19T15:34:23.147Z,8.35
2023-02-19T15:36:51.791Z,8.04
2023-02-19T15:39:26.134Z,7.40
2023-02-19T15:42:00.105Z,7.14
2023-02-19T15:44:44.393Z,7.50
2023-02-19T15:47:19.182Z,7.44
2023-02-19T15:49:54.665Z,7.49
2023-02-19T15:52:30.491Z,7.46
2023-02-19T15:55:17.021Z,7.48
2023-02-19T15:57:49.846Z,7.44
2023-02-19T16:00:16.608Z,7.50
2023-02-19T16:02:46.484Z,7.48
2023-02-19T16:05:17.962Z,7.17
2023-02-19T16:07:44.683Z,7.42
2023-02-19T16:10:24.204Z,7.34
2023-02-19T16:13:01.484Z,7.26
2023-02-19T16:15:29.860Z,7.43
2023-02-19T16:17:57.816Z,7.49
2023-02-19T16:20:33.565Z,7.36
2023-02-19T16:23:05.818Z,7.42
2023-02-19T16:25:46.079Z,7.47
2023-02-19T16:28:24.095Z,7.39
2023-02-19T16:31:20.700Z,7.44
2023-02-19T16:33:48.783Z,7.47
2023-02-19T16:36:19.477Z,7.35
2023-02-19T16:39:08.147Z,7.34
2023-02-19T16:41:40.065Z,7.36
2023-02-19T16:44:24.950Z,7.32
2023-02-19T16:46:58.166Z,7.28
2023-02-19T16:49:25.007Z,7.26
2023-02-19T16:51:54.020Z,7.22
2023-02-19T16:54:20.901Z,7.17
2023-02-19T16:56:47.666Z,7.13
2023-02-19T16:59:14.465Z,7.02
2023-02-19T17:01:41.233Z,7.00
2023-02-19T17:04:10.102Z,6.88
2023-02-19T17:06:40.331Z,6.83
2023-02-19T17:09:09.053Z,6.77
2023-02-19T17:11:36.398Z,6.70
2023-02-19T17:14:03.517Z,6.63
2023-02-19T17:16:34.402Z,6.54
2023-02-19T17:19:05.732Z,6.45
2023-02-19T17:21:33.501Z,6.41
2023-02-19T17:24:00.230Z,6.37
2023-02-19T17:26:29.574Z,6.33
2023-02-19T17:28:57.159Z,6.19
2023-02-19T17:31:24.278Z,6.13
2023-02-19T17:33:51.896Z,6.12
2023-02-19T17:36:30.972Z,6.09
2023-02-19T17:39:02.283Z,6.02
2023-02-19T17:41:29.433Z,5.98
2023-02-19T17:43:56.269Z,5.94
2023-02-19T17:46:25.203Z,5.91
2023-02-19T17:48:52.758Z,5.83
2023-02-19T17:51:19.705Z,5.82
2023-02-19T17:53:46.807Z,5.75
2023-02-19T17:56:22.270Z,5.71
2023-02-19T17:58:50.024Z,5.63
2023-02-19T18:01:16.912Z,5.67
2023-02-19T18:03:43.985Z,5.66
2023-02-19T18:06:11.398Z,5.66
2023-02-19T18:08:38.130Z,5.58
2023-02-19T18:11:07.032Z,5.60
2023-02-19T18:13:33.762Z,5.51
2023-02-19T18:16:01.035Z,5.49
2023-02-19T18:18:27.707Z,5.46
2023-02-19T18:20:54.411Z,5.44
2023-02-19T18:23:21.202Z,5.43
2023-02-19T18:25:47.911Z,5.41
2023-02-19T18:28:15.827Z,5.42
2023-02-19T18:30:44.316Z,5.37
2023-02-19T18:33:13.335Z,5.35
2023-02-19T18:35:40.128Z,5.30
2023-02-19T18:38:07.003Z,5.28
2023-02-19T18:40:33.977Z,5.24
2023-02-19T18:43:00.844Z,5.23
2023-02-19T18:45:29.747Z,5.18
2023-02-19T18:47:56.617Z,5.15
2023-02-19T18:50:23.338Z,5.11
2023-02-19T18:52:50.156Z,5.09
2023-02-19T18:55:17.052Z,5.08
2023-02-19T18:57:44.389Z,5.08
2023-02-19T19:00:16.046Z,5.04
2023-02-19T19:02:49.009Z,5.04
2023-02-19T19:05:23.051Z,5.05
2023-02-19T19:07:55.487Z,5.01
2023-02-19T19:10:22.686Z,5.00
2023-02-19T19:12:54.220Z,4.97
2023-02-19T19:15:21.960Z,4.95
2023-02-19T19:17:48.795Z,4.94
2023-02-19T19:20:20.627Z,4.82
2023-02-19T19:22:51.266Z,4.86
2023-02-19T19:25:18.671Z,4.86
2023-02-19T19:27:46.175Z,4.89
2023-02-19T19:30:13.421Z,4.87
2023-02-19T19:32:40.219Z,4.88
2023-02-19T19:35:07.186Z,4.87
2023-02-19T19:37:33.901Z,4.84
2023-02-19T19:40:00.604Z,4.85
2023-02-19T19:42:28.386Z,4.82
2023-02-19T19:44:55.966Z,4.85
2023-02-19T19:47:22.816Z,4.84
2023-02-19T19:49:49.463Z,4.84
2023-02-19T19:52:16.098Z,4.83
2023-02-19T19:54:43.361Z,4.77
2023-02-19T19:57:10.625Z,4.70
2023-02-19T19:59:39.376Z,4.67
2023-02-19T20:02:07.280Z,4.63
2023-02-19T20:04:33.909Z,4.65
2023-02-19T20:07:00.742Z,4.62
2023-02-19T20:09:29.217Z,4.61
2023-02-19T20:11:56.156Z,4.60
2023-02-19T20:14:23.682Z,4.56
2023-02-19T20:16:50.855Z,4.56
2023-02-19T20:19:18.581Z,4.56
2023-02-19T20:21:50.547Z,4.51
2023-02-19T20:24:28.687Z,4.47
2023-02-19T20:27:00.422Z,4.42
2023-02-19T20:29:29.144Z,4.37
2023-02-19T20:31:59.356Z,4.40
2023-02-19T20:34:26.481Z,4.37
2023-02-19T20:36:53.251Z,4.34
2023-02-19T20:39:21.462Z,4.28
2023-02-19T20:41:51.093Z,4.30
2023-02-19T20:44:18.614Z,4.25
2023-02-19T20:46:49.934Z,4.29
2023-02-19T20:49:18.433Z,4.29
2023-02-19T20:51:45.000Z,4.23
2023-02-19T20:54:11.827Z,4.22
2023-02-19T20:56:44.089Z,4.28
2023-02-19T20:59:12.815Z,4.27
2023-02-19T21:01:39.689Z,4.28
2023-02-19T21:04:09.899Z,4.25
2023-02-19T21:06:36.742Z,4.25
2023-02-19T21:09:04.308Z,4.22
2023-02-19T21:11:31.062Z,4.22
2023-02-19T21:13:59.336Z,4.17
2023-02-19T21:16:27.458Z,4.19
2023-02-19T21:18:54.377Z,4.17
2023-02-19T21:21:25.568Z,4.15
2023-02-19T21:23:55.670Z,4.12
2023-02-19T21:26:23.365Z,4.02
2023-02-19T21:28:53.739Z,4.10
2023-02-19T21:31:22.032Z,4.08
2023-02-19T21:33:50.040Z,4.02
2023-02-19T21:36:18.484Z,4.07
2023-02-19T21:38:45.161Z,4.09
2023-02-19T21:41:11.856Z,4.08
2023-02-19T21:43:38.488Z,4.11
2023-02-19T21:46:05.316Z,4.09
2023-02-19T21:48:32.178Z,4.09
2023-02-19T21:50:58.851Z,4.06
2023-02-19T21:53:25.621Z,4.05
2023-02-19T21:55:58.226Z,4.12
2023-02-19T21:58:26.244Z,4.17
2023-02-19T22:00:54.310Z,4.07
2023-02-19T22:03:21.257Z,4.16
2023-02-19T22:05:47.912Z,4.21
2023-02-19T22:08:17.694Z,4.21
2023-02-19T22:10:44.968Z,4.30
2023-02-19T22:13:11.806Z,4.35
2023-02-19T22:15:38.540Z,4.28
2023-02-19T22:18:05.614Z,4.31
2023-02-19T22:20:32.498Z,4.42
2023-02-19T22:22:59.136Z,4.38
2023-02-19T22:25:25.807Z,4.45
2023-02-19T22:27:55.254Z,4.43
2023-02-19T22:30:21.959Z,4.31
2023-02-19T22:32:48.671Z,4.28
2023-02-19T22:35:15.896Z,4.34
2023-02-19T22:37:42.632Z,4.41
2023-02-19T22:40:09.655Z,4.45
2023-02-19T22:42:36.785Z,4.44
2023-02-19T22:45:03.698Z,4.37
2023-02-19T22:47:30.373Z,4.43
2023-02-19T22:49:57.092Z,4.41
2023-02-19T22:52:28.064Z,4.51
2023-02-19T22:54:55.681Z,4.51
2023-02-19T22:57:22.412Z,4.48
2023-02-19T22:59:49.067Z,4.59
2023-02-19T23:02:15.753Z,4.59
2023-02-19T23:04:42.400Z,4.54
2023-02-19T23:07:09.230Z,4.54
2023-02-19T23:09:36.034Z,4.56
2023-02-19T23:12:10.713Z,4.49
2023-02-19T23:14:37.869Z,4.50
2023-02-19T23:17:04.676Z,4.27
2023-02-19T23:19:31.911Z,4.49
2023-02-19T23:21:58.835Z,4.46
2023-02-19T23:24:25.567Z,4.32
2023-02-19T23:26:53.495Z,4.44
2023-02-19T23:29:26.981Z,4.48
2023-02-19T23:31:54.376Z,4.44
2023-02-19T23:34:21.209Z,4.31
2023-02-19T23:36:49.740Z,4.42
2023-02-19T23:39:18.648Z,4.39
2023-02-19T23:41:52.167Z,4.42
2023-02-19T23:44:19.625Z,4.22
2023-02-19T23:46:46.340Z,4.33
2023-02-19T23:49:16.238Z,4.38
2023-02-19T23:51:42.843Z,4.30
2023-02-19T23:54:09.531Z,4.27
2023-02-19T23:56:36.241Z,4.34
2023-02-19T23:59:02.991Z,4.32
